Engenheiro Navarro, Brazil
Current Conditions -  °F | °C
As of 8:00 AM on Monday 20 Oct 2014 (Local Time) from SBMK Reporting Station
Smoke Smoke  
Wind Chill: 82°   Ceiling: Unl
Heat Index: 82°   Visibility: 3mi
Dew Point: 54°   Wind: 5mph
Humidity: 37%   Direction: 280°W
Pressure: 29.97"   Gusts: NA
Location:  17.28°S, 43.94°W
Report Text: SBMK 201100Z 28004KT 250V340 4800 FU SCT040 SCT100 28/12 Q1015
Loading
Personal Weather Stations






























Interactive Weather Map
Tropical Storm Tracking
New forecast layout! Learn more

10-Day Weather Forecast

Advertisements
Track Severe Weather on mobile